Time;durP1;ratioP1;P1;durP2;ratioP2;P2;SDS_P1;SDS_P2;PMS_P1;PMS_P2;Temp;Humidity;BMP_temperature;BMP_pressure;BME280_temperature;BME280_humidity;BME280_pressure;Samples;Min_cycle;Max_cycle;Signal;HPM_P1;HPM_P2
2022/06/13 00:01:11;;;;;;;1999.90;999.90;;;18.00;99.90;;;;;;5053995;28;20478;-69
2022/06/13 00:03:38;;;;;;;1999.90;999.90;;;18.00;99.90;;;;;;5053555;28;20471;-68
2022/06/13 00:06:05;;;;;;;1999.90;999.90;;;17.50;99.90;;;;;;5046668;28;20458;-67
2022/06/13 00:08:33;;;;;;;1999.90;999.90;;;17.90;99.90;;;;;;5057347;28;20461;-69
2022/06/13 00:11:00;;;;;;;1999.90;999.90;;;17.90;99.90;;;;;;5055310;28;20512;-69
2022/06/13 00:13:27;;;;;;;1999.90;999.90;;;17.80;99.90;;;;;;5052850;28;20462;-69
2022/06/13 00:15:53;;;;;;;1999.90;999.90;;;17.70;99.90;;;;;;5058584;28;21029;-69
2022/06/13 00:18:20;;;;;;;1999.90;999.90;;;17.60;99.90;;;;;;5050782;28;20524;-69
2022/06/13 00:20:46;;;;;;;1999.90;999.90;;;17.70;99.90;;;;;;5051548;28;20463;-68
2022/06/13 00:23:13;;;;;;;1999.90;999.90;;;17.60;99.90;;;;;;5050282;28;20532;-68
2022/06/13 00:25:41;;;;;;;1999.90;999.90;;;17.50;99.90;;;;;;5049126;28;20485;-69
2022/06/13 00:28:08;;;;;;;1999.90;999.90;;;17.50;99.90;;;;;;5053055;28;21022;-68
2022/06/13 00:30:34;;;;;;;1999.90;999.90;;;17.60;99.90;;;;;;5053978;28;20457;-70
2022/06/13 00:33:01;;;;;;;1999.90;999.90;;;17.50;99.90;;;;;;5052331;28;21066;-69
2022/06/13 00:35:28;;;;;;;1999.90;999.90;;;17.50;99.90;;;;;;5052230;28;20877;-69
2022/06/13 00:37:54;;;;;;;1999.90;999.90;;;17.40;99.90;;;;;;5057349;28;20515;-68
2022/06/13 00:40:22;;;;;;;1999.90;999.90;;;17.60;99.90;;;;;;5054008;28;20519;-69
2022/06/13 00:42:50;;;;;;;1999.90;999.90;;;17.60;99.90;;;;;;5053000;28;20521;-69
2022/06/13 00:45:20;;;;;;;1999.90;999.90;;;17.60;99.90;;;;;;5052871;28;20458;-68
2022/06/13 00:47:49;;;;;;;1999.90;999.90;;;17.50;99.90;;;;;;5050087;28;20459;-68
2022/06/13 00:50:20;;;;;;;1999.90;999.90;;;17.40;99.90;;;;;;5050700;28;20872;-69
2022/06/13 00:52:52;;;;;;;1999.90;999.90;;;17.30;99.90;;;;;;5055233;28;20479;-69
2022/06/13 00:55:28;;;;;;;1999.90;999.90;;;17.30;99.90;;;;;;5052396;28;20504;-68
2022/06/13 00:57:58;;;;;;;1999.90;999.90;;;17.50;99.90;;;;;;5052914;28;20462;-69
2022/06/13 01:00:25;;;;;;;1999.90;999.90;;;17.30;99.90;;;;;;5054510;28;20461;-69
2022/06/13 01:02:53;;;;;;;1999.90;999.90;;;17.00;99.90;;;;;;5053070;28;20494;-69
2022/06/13 01:05:23;;;;;;;1999.90;999.90;;;16.80;99.90;;;;;;5051555;28;20466;-68
2022/06/13 01:07:51;;;;;;;1999.90;999.90;;;16.60;99.90;;;;;;5050957;28;20458;-69
2022/06/13 01:13:06;;;;;;;1999.90;999.90;;;16.50;99.90;;;;;;5055718;28;20480;-69
2022/06/13 01:15:55;;;;;;;1999.90;999.90;;;16.40;99.90;;;;;;5050491;28;20878;-68
2022/06/13 01:18:36;;;;;;;1999.90;999.90;;;16.40;99.90;;;;;;5052776;28;20551;-67
2022/06/13 01:21:12;;;;;;;1999.90;999.90;;;16.30;99.90;;;;;;5053154;28;21012;-69
2022/06/13 01:24:12;;;;;;;1999.90;999.90;;;16.20;99.90;;;;;;5050285;28;20473;-69
2022/06/13 01:27:21;;;;;;;1999.90;999.90;;;16.10;99.90;;;;;;5049015;28;20962;-69
2022/06/13 01:29:54;;;;;;;1999.90;999.90;;;16.00;99.90;;;;;;5050840;28;20458;-68
2022/06/13 01:32:57;;;;;;;1999.90;999.90;;;16.00;99.90;;;;;;5050551;28;20536;-66
2022/06/13 01:35:41;;;;;;;1999.90;999.90;;;15.80;99.90;;;;;;5047011;28;20516;-68
2022/06/13 01:38:17;;;;;;;1999.90;999.90;;;15.80;99.90;;;;;;5047797;28;20462;-69
2022/06/13 01:40:58;;;;;;;1999.90;999.90;;;15.70;99.90;;;;;;5050333;28;20520;-69
2022/06/13 01:43:33;;;;;;;1999.90;999.90;;;15.60;99.90;;;;;;5050863;28;20519;-69
2022/06/13 01:46:08;;;;;;;1999.90;999.90;;;15.50;99.90;;;;;;5053503;28;20462;-68
2022/06/13 01:48:45;;;;;;;1999.90;999.90;;;15.50;99.90;;;;;;5050403;28;20510;-69
2022/06/13 01:51:20;;;;;;;1999.90;999.90;;;15.40;99.90;;;;;;5050388;28;20481;-69
2022/06/13 01:53:55;;;;;;;1999.90;999.90;;;15.40;99.90;;;;;;5049613;28;20458;-69
2022/06/13 01:56:26;;;;;;;1999.90;999.90;;;15.40;99.90;;;;;;5051332;28;20450;-68
2022/06/13 01:58:58;;;;;;;1999.90;999.90;;;15.50;99.90;;;;;;5052191;28;20481;-69
2022/06/13 02:01:35;;;;;;;1999.90;999.90;;;15.60;99.90;;;;;;5051580;28;20481;-69
2022/06/13 02:04:10;;;;;;;1999.90;999.90;;;15.70;99.90;;;;;;5055015;28;20458;-71
2022/06/13 02:06:41;;;;;;;1999.90;999.90;;;16.00;99.90;;;;;;5047328;28;20488;-70
2022/06/13 02:09:12;;;;;;;1999.90;999.90;;;15.80;99.90;;;;;;5046934;28;20496;-69
2022/06/13 02:11:45;;;;;;;1999.90;999.90;;;15.90;99.90;;;;;;5049266;28;20521;-69
2022/06/13 02:14:16;;;;;;;1999.90;999.90;;;15.90;99.90;;;;;;5046487;28;20489;-68
2022/06/13 02:16:48;;;;;;;1999.90;999.90;;;15.90;99.90;;;;;;5050456;28;20515;-70
2022/06/13 02:19:20;;;;;;;1999.90;999.90;;;15.90;99.90;;;;;;5052103;28;20481;-69
2022/06/13 02:21:51;;;;;;;1999.90;999.90;;;16.00;99.90;;;;;;5049096;28;20528;-69
2022/06/13 02:24:22;;;;;;;1999.90;999.90;;;16.10;99.90;;;;;;5050009;28;20458;-68
2022/06/13 02:26:53;;;;;;;1999.90;999.90;;;16.00;99.90;;;;;;5051651;28;20968;-69
2022/06/13 02:29:22;;;;;;;1999.90;999.90;;;16.00;99.90;;;;;;5054521;28;20454;-67
2022/06/13 02:31:54;;;;;;;1999.90;999.90;;;16.00;99.90;;;;;;5051941;28;20478;-69
2022/06/13 02:34:26;;;;;;;1999.90;999.90;;;16.00;99.90;;;;;;5049468;28;20512;-69
2022/06/13 02:36:56;;;;;;;1999.90;999.90;;;16.00;99.90;;;;;;5049011;28;20970;-69
2022/06/13 02:39:28;;;;;;;1999.90;999.90;;;16.10;99.90;;;;;;5052782;28;20524;-69
2022/06/13 02:41:59;;;;;;;1999.90;999.90;;;16.00;99.90;;;;;;5054033;28;20555;-69
2022/06/13 02:44:31;;;;;;;1999.90;999.90;;;15.90;99.90;;;;;;5051617;28;21190;-69
2022/06/13 02:47:02;;;;;;;1999.90;999.90;;;15.90;99.90;;;;;;5052043;28;20461;-69
2022/06/13 02:49:37;;;;;;;1999.90;999.90;;;15.70;99.90;;;;;;5053015;28;20449;-69
2022/06/13 02:52:10;;;;;;;1999.90;999.90;;;15.60;99.90;;;;;;5054007;28;21066;-69
2022/06/13 02:54:45;;;;;;;1999.90;999.90;;;15.80;99.90;;;;;;5051064;28;20870;-69
2022/06/13 02:57:31;;;;;;;1999.90;999.90;;;15.70;99.90;;;;;;5047302;28;20454;-68
2022/06/13 03:00:19;;;;;;;1999.90;999.90;;;15.80;99.90;;;;;;5050835;28;20474;-69
2022/06/13 03:02:58;;;;;;;1999.90;999.90;;;15.80;99.90;;;;;;5050474;28;20474;-68
2022/06/13 03:05:43;;;;;;;1999.90;999.90;;;15.60;99.90;;;;;;5047141;28;20462;-69
2022/06/13 03:08:22;;;;;;;1999.90;999.90;;;15.50;99.90;;;;;;5054708;28;20847;-69
2022/06/13 03:10:59;;;;;;;1999.90;999.90;;;15.50;99.90;;;;;;5050208;28;20455;-69
2022/06/13 03:13:33;;;;;;;1999.90;999.90;;;15.40;99.90;;;;;;5046861;28;20504;-69
2022/06/13 03:16:08;;;;;;;1999.90;999.90;;;15.30;99.90;;;;;;5053263;28;20458;-69
2022/06/13 03:18:45;;;;;;;1999.90;999.90;;;15.20;99.90;;;;;;5049771;28;20974;-69
2022/06/13 03:21:17;;;;;;;1999.90;999.90;;;15.00;99.90;;;;;;5045957;28;20491;-68
2022/06/13 03:23:47;;;;;;;1999.90;999.90;;;15.00;99.90;;;;;;5051474;28;20925;-69
2022/06/13 03:26:17;;;;;;;1999.90;999.90;;;15.20;99.90;;;;;;5052653;28;20461;-69
2022/06/13 03:28:48;;;;;;;1999.90;999.90;;;15.30;99.90;;;;;;5048336;28;20505;-69
2022/06/13 03:31:18;;;;;;;1999.90;999.90;;;15.30;99.90;;;;;;5050433;28;21059;-69
2022/06/13 03:33:48;;;;;;;1999.90;999.90;;;15.30;99.90;;;;;;5051780;28;21243;-69
2022/06/13 03:36:20;;;;;;;1999.90;999.90;;;15.20;99.90;;;;;;5052351;28;20957;-69
2022/06/13 03:38:53;;;;;;;1999.90;999.90;;;15.30;99.90;;;;;;5052066;28;20525;-70
2022/06/13 03:41:23;;;;;;;1999.90;999.90;;;15.50;99.90;;;;;;5052396;28;21149;-67
2022/06/13 03:43:55;;;;;;;1999.90;999.90;;;15.60;99.90;;;;;;5051167;28;20463;-69
2022/06/13 03:46:27;;;;;;;1999.90;999.90;;;15.70;99.90;;;;;;5049614;28;20458;-69
2022/06/13 03:48:59;;;;;;;1999.90;999.90;;;15.70;99.90;;;;;;5048575;28;20953;-69
2022/06/13 03:51:30;;;;;;;1999.90;999.90;;;15.70;99.90;;;;;;5048824;28;20478;-68
2022/06/13 03:54:01;;;;;;;1999.90;999.90;;;15.60;99.90;;;;;;5052406;28;20515;-69
2022/06/13 03:56:32;;;;;;;1999.90;999.90;;;15.50;99.90;;;;;;5048899;28;20463;-69
2022/06/13 03:59:04;;;;;;;1999.90;999.90;;;15.50;99.90;;;;;;5050796;28;20477;-69
2022/06/13 04:01:36;;;;;;;1999.90;999.90;;;15.40;99.90;;;;;;5047610;28;20550;-69
2022/06/13 04:04:03;;;;;;;1999.90;999.90;;;15.30;99.90;;;;;;5054931;28;20856;-69
2022/06/13 04:06:35;;;;;;;1999.90;999.90;;;15.40;99.90;;;;;;5052814;28;20449;-69
2022/06/13 04:09:04;;;;;;;1999.90;999.90;;;15.40;99.90;;;;;;5049130;28;20458;-69
2022/06/13 04:11:41;;;;;;;1999.90;999.90;;;15.60;99.90;;;;;;5050680;28;21005;-67
2022/06/13 04:14:23;;;;;;;1999.90;999.90;;;15.70;99.90;;;;;;5047331;28;20461;-69
2022/06/13 04:16:58;;;;;;;1999.90;999.90;;;15.80;99.90;;;;;;5049463;28;20462;-69
2022/06/13 04:19:42;;;;;;;1999.90;999.90;;;15.90;99.90;;;;;;5052614;28;20477;-70
2022/06/13 04:22:18;;;;;;;1999.90;999.90;;;16.00;99.90;;;;;;5046947;28;20528;-70
2022/06/13 04:24:55;;;;;;;1999.90;999.90;;;16.00;99.90;;;;;;5049635;28;20527;-69
2022/06/13 04:27:24;;;;;;;1999.90;999.90;;;16.00;99.90;;;;;;5050305;28;20457;-68
2022/06/13 04:29:58;;;;;;;1999.90;999.90;;;15.90;99.90;;;;;;5047172;28;20520;-70
2022/06/13 04:32:30;;;;;;;1999.90;999.90;;;16.00;99.90;;;;;;5048918;28;20482;-69
2022/06/13 04:34:59;;;;;;;1999.90;999.90;;;16.10;99.90;;;;;;5055486;28;20872;-69
2022/06/13 04:37:27;;;;;;;1999.90;999.90;;;16.10;99.90;;;;;;5056718;28;20511;-69
2022/06/13 04:39:58;;;;;;;1999.90;999.90;;;16.20;99.90;;;;;;5052697;28;20535;-69
2022/06/13 04:42:29;;;;;;;1999.90;999.90;;;16.10;99.90;;;;;;5052547;28;20482;-67
2022/06/13 04:45:00;;;;;;;1999.90;999.90;;;16.00;99.90;;;;;;5054981;28;20528;-69
2022/06/13 04:47:27;;;;;;;1999.90;999.90;;;16.10;99.90;;;;;;5052051;28;20494;-68
2022/06/13 04:49:56;;;;;;;1999.90;999.90;;;16.30;99.90;;;;;;5053056;28;20462;-69
2022/06/13 04:52:28;;;;;;;1999.90;999.90;;;16.30;99.90;;;;;;5054024;28;20478;-67
2022/06/13 04:55:00;;;;;;;1999.90;999.90;;;16.30;99.90;;;;;;5052419;28;20508;-69
2022/06/13 04:57:28;;;;;;;1999.90;999.90;;;16.30;99.90;;;;;;5049749;28;20883;-69
2022/06/13 04:59:56;;;;;;;1999.90;999.90;;;16.20;99.90;;;;;;5052291;28;20829;-69
2022/06/13 05:02:31;;;;;;;1999.90;999.90;;;16.20;99.90;;;;;;5054159;28;20478;-69
2022/06/13 05:04:58;;;;;;;1999.90;999.90;;;16.20;99.90;;;;;;5061688;28;20484;-69
2022/06/13 05:07:25;;;;;;;1999.90;999.90;;;16.20;99.90;;;;;;5055803;28;20460;-68
2022/06/13 05:09:57;;;;;;;1999.90;999.90;;;16.30;99.90;;;;;;5055173;28;20869;-69
2022/06/13 05:12:31;;;;;;;1999.90;999.90;;;16.40;99.90;;;;;;5053667;28;20539;-69
2022/06/13 05:15:02;;;;;;;1999.90;999.90;;;16.50;99.90;;;;;;5053944;28;20458;-69
2022/06/13 05:17:52;;;;;;;1999.90;999.90;;;16.50;99.90;;;;;;5052539;28;20509;-66
2022/06/13 05:20:23;;;;;;;1999.90;999.90;;;16.50;99.90;;;;;;5054529;28;20501;-69
2022/06/13 05:23:06;;;;;;;1999.90;999.90;;;16.60;99.90;;;;;;5052593;28;20533;-68
2022/06/13 05:25:43;;;;;;;1999.90;999.90;;;16.70;99.90;;;;;;5051396;28;20512;-69
2022/06/13 05:28:10;;;;;;;1999.90;999.90;;;16.70;99.90;;;;;;5047179;28;20893;-69
2022/06/13 05:30:37;;;;;;;1999.90;999.90;;;16.70;99.90;;;;;;5050984;28;20953;-69
2022/06/13 05:33:04;;;;;;;1999.90;999.90;;;16.60;99.90;;;;;;5052323;28;20543;-69
2022/06/13 05:35:33;;;;;;;1999.90;999.90;;;16.50;99.90;;;;;;5052925;28;20459;-69
2022/06/13 05:38:03;;;;;;;1999.90;999.90;;;16.50;99.90;;;;;;5052941;28;20457;-70
2022/06/13 05:40:30;;;;;;;1999.90;999.90;;;16.30;99.90;;;;;;5052198;28;20477;-69
2022/06/13 05:42:58;;;;;;;1999.90;999.90;;;16.20;99.90;;;;;;5051109;28;20554;-69
2022/06/13 05:45:25;;;;;;;1999.90;999.90;;;16.10;99.90;;;;;;5051031;28;20891;-69
2022/06/13 05:47:53;;;;;;;1999.90;999.90;;;16.10;99.90;;;;;;5051321;28;21782;-68
2022/06/13 05:50:22;;;;;;;1999.90;999.90;;;16.20;99.90;;;;;;5052587;28;20545;-69
2022/06/13 05:52:50;;;;;;;1999.90;999.90;;;16.30;99.90;;;;;;5050685;28;20474;-70
2022/06/13 05:55:17;;;;;;;1999.90;999.90;;;16.60;99.90;;;;;;5051245;28;20520;-69
2022/06/13 05:57:43;;;;;;;1999.90;999.90;;;16.70;99.90;;;;;;5052764;28;20540;-69
2022/06/13 06:00:17;;;;;;;1999.90;999.90;;;16.70;99.90;;;;;;5051640;28;21058;-69
2022/06/13 06:02:44;;;;;;;1999.90;999.90;;;16.60;99.90;;;;;;5055058;28;20478;-69
2022/06/13 06:05:11;;;;;;;1999.90;999.90;;;16.70;99.90;;;;;;5054736;28;20886;-69
2022/06/13 06:07:39;;;;;;;1999.90;999.90;;;16.60;99.90;;;;;;5046680;28;20924;-69
2022/06/13 06:10:07;;;;;;;1999.90;999.90;;;16.60;99.90;;;;;;5052905;28;20454;-69
2022/06/13 06:12:34;;;;;;;1999.90;999.90;;;16.60;99.90;;;;;;5046609;28;20580;-69
2022/06/13 06:15:01;;;;;;;1999.90;999.90;;;16.70;99.90;;;;;;5051666;28;20457;-69
2022/06/13 06:17:29;;;;;;;1999.90;999.90;;;16.80;99.90;;;;;;5052486;28;20458;-69
2022/06/13 06:19:56;;;;;;;1999.90;999.90;;;17.00;99.90;;;;;;5060944;28;20478;-69
2022/06/13 06:22:22;;;;;;;1999.90;999.90;;;17.00;99.90;;;;;;5058281;28;20481;-69
2022/06/13 06:24:49;;;;;;;1999.90;999.90;;;17.00;99.90;;;;;;5051320;28;20536;-69
2022/06/13 06:27:16;;;;;;;1999.90;999.90;;;17.30;99.90;;;;;;5055639;28;21129;-69
2022/06/13 06:29:43;;;;;;;1999.90;999.90;;;17.70;99.90;;;;;;5054596;28;20515;-70
2022/06/13 06:32:10;;;;;;;1999.90;999.90;;;18.10;99.90;;;;;;5054376;28;21075;-70
2022/06/13 06:34:38;;;;;;;1999.90;999.90;;;18.70;99.90;;;;;;5053481;28;20530;-69
2022/06/13 06:37:05;;;;;;;1999.90;999.90;;;18.70;99.90;;;;;;5054468;28;20539;-71
2022/06/13 06:39:31;;;;;;;1999.90;999.90;;;18.90;99.90;;;;;;5049548;28;20462;-72
2022/06/13 06:41:58;;;;;;;1999.90;999.90;;;19.10;99.90;;;;;;5049177;28;21020;-71
2022/06/13 06:44:25;;;;;;;1999.90;999.90;;;19.10;99.90;;;;;;5085413;22;20546;-68
2022/06/13 06:46:51;;;;;;;1999.90;999.90;;;18.90;99.90;;;;;;5080215;28;20457;-68
2022/06/13 06:49:18;;;;;;;1999.90;999.90;;;18.60;99.90;;;;;;5077424;28;20456;-69
2022/06/13 06:51:46;;;;;;;1999.90;999.90;;;18.50;99.90;;;;;;5080826;28;20461;-67
2022/06/13 06:59:57;;;;;;;1999.90;999.90;;;18.70;99.90;;;;;;5065659;28;20460;-67
2022/06/13 07:02:26;;;;;;;1999.90;999.90;;;18.70;99.90;;;;;;5062916;28;20461;-68
2022/06/13 07:04:54;;;;;;;1999.90;999.90;;;18.60;99.90;;;;;;5067835;28;20974;-67
2022/06/13 07:07:22;;;;;;;1999.90;999.90;;;18.50;99.90;;;;;;5068631;28;20945;-69
2022/06/13 07:09:49;;;;;;;1999.90;999.90;;;18.40;99.90;;;;;;5067687;28;20469;-71
2022/06/13 07:12:17;;;;;;;1999.90;999.90;;;18.40;99.90;;;;;;5063041;28;20523;-67
2022/06/13 07:14:44;;;;;;;1999.90;999.90;;;18.40;99.90;;;;;;5066631;28;20866;-67
2022/06/13 07:17:11;;;;;;;1999.90;999.90;;;18.20;99.90;;;;;;5068457;28;20988;-69
2022/06/13 07:19:38;;;;;;;1999.90;999.90;;;18.10;99.90;;;;;;5067094;28;20804;-69
2022/06/13 07:22:07;;;;;;;1999.90;999.90;;;18.10;99.90;;;;;;5063068;28;20543;-69
2022/06/13 07:24:35;;;;;;;1999.90;999.90;;;18.20;99.90;;;;;;5067886;28;20481;-68
2022/06/13 07:27:02;;;;;;;1999.90;999.90;;;18.30;99.90;;;;;;5067675;28;20518;-67
2022/06/13 07:29:29;;;;;;;1999.90;999.90;;;18.00;99.90;;;;;;5061356;28;20458;-67
2022/06/13 07:32:02;;;;;;;1999.90;999.90;;;17.80;99.90;;;;;;5069245;28;20441;-67
2022/06/13 07:34:32;;;;;;;1999.90;999.90;;;17.70;99.90;;;;;;5067458;28;20469;-66
2022/06/13 07:37:01;;;;;;;1999.90;999.90;;;17.60;99.90;;;;;;5067205;28;20518;-67
2022/06/13 07:39:28;;;;;;;1999.90;999.90;;;17.50;99.90;;;;;;5068332;28;20534;-68
2022/06/13 07:41:57;;;;;;;1999.90;999.90;;;17.50;99.90;;;;;;5060710;28;20473;-69
2022/06/13 07:44:28;;;;;;;1999.90;999.90;;;17.60;99.90;;;;;;5064913;28;20500;-68
2022/06/13 07:46:55;;;;;;;1999.90;999.90;;;17.50;99.90;;;;;;5067263;28;20862;-68
2022/06/13 07:49:22;;;;;;;1999.90;999.90;;;17.60;99.90;;;;;;5065307;28;20522;-67
2022/06/13 07:51:49;;;;;;;1999.90;999.90;;;17.40;99.90;;;;;;5060542;28;20581;-68
2022/06/13 07:54:16;;;;;;;1999.90;999.90;;;17.40;99.90;;;;;;5062870;28;20486;-68
2022/06/13 07:56:43;;;;;;;1999.90;999.90;;;17.40;99.90;;;;;;5065757;28;20466;-69
2022/06/13 07:59:16;;;;;;;1999.90;999.90;;;17.40;99.90;;;;;;5068096;28;20527;-69
2022/06/13 08:01:43;;;;;;;1999.90;999.90;;;17.30;99.90;;;;;;5070562;28;20499;-68
2022/06/13 08:04:09;;;;;;;1999.90;999.90;;;17.20;99.90;;;;;;5071512;28;20468;-68
2022/06/13 08:06:38;;;;;;;1999.90;999.90;;;17.10;99.90;;;;;;5066990;28;20462;-68
2022/06/13 08:09:05;;;;;;;1999.90;999.90;;;17.00;99.90;;;;;;5067275;28;20556;-68
2022/06/13 08:11:35;;;;;;;1999.90;999.90;;;17.30;99.90;;;;;;5074304;28;20507;-68
2022/06/13 08:14:01;;;;;;;1999.90;999.90;;;17.20;99.90;;;;;;5071370;28;20477;-69
2022/06/13 08:16:30;;;;;;;1999.90;999.90;;;17.30;99.90;;;;;;5071936;28;20461;-68
2022/06/13 08:18:56;;;;;;;1999.90;999.90;;;17.50;99.90;;;;;;5070255;28;20458;-69
2022/06/13 08:21:23;;;;;;;1999.90;999.90;;;17.80;99.90;;;;;;5071412;28;21041;-69
2022/06/13 08:23:50;;;;;;;1999.90;999.90;;;17.90;99.90;;;;;;5073122;28;20480;-68
2022/06/13 08:26:16;;;;;;;1999.90;999.90;;;18.00;99.90;;;;;;5070830;28;20866;-68
2022/06/13 08:28:43;;;;;;;1999.90;999.90;;;18.00;99.90;;;;;;5071588;28;20550;-69
2022/06/13 08:31:12;;;;;;;1999.90;999.90;;;18.00;99.90;;;;;;5072667;28;20499;-69
2022/06/13 08:33:41;;;;;;;1999.90;999.90;;;18.30;99.90;;;;;;5066509;28;20476;-68
2022/06/13 08:36:09;;;;;;;1999.90;999.90;;;18.70;99.90;;;;;;5072380;28;20457;-70
2022/06/13 08:38:36;;;;;;;1999.90;999.90;;;18.80;99.90;;;;;;5070943;28;20452;-68
2022/06/13 08:41:11;;;;;;;1999.90;999.90;;;18.90;99.90;;;;;;5078020;28;20503;-68
2022/06/13 08:44:01;;;;;;;1999.90;999.90;;;18.70;99.90;;;;;;5069142;28;20560;-69
2022/06/13 08:46:36;;;;;;;1999.90;999.90;;;18.70;99.90;;;;;;5066169;28;20463;-67
2022/06/13 08:49:11;;;;;;;1999.90;999.90;;;18.40;99.90;;;;;;5071460;28;20464;-70
2022/06/13 08:51:45;;;;;;;1999.90;999.90;;;18.70;99.90;;;;;;5069752;28;20825;-68
2022/06/13 08:54:17;;;;;;;1999.90;999.90;;;18.80;99.90;;;;;;5068870;28;21514;-67
2022/06/13 08:56:44;;;;;;;1999.90;999.90;;;18.70;99.90;;;;;;5066681;28;20453;-70
2022/06/13 08:59:25;;;;;;;1999.90;999.90;;;18.80;99.90;;;;;;5070233;28;20449;-69
2022/06/13 09:01:57;;;;;;;1999.90;999.90;;;19.30;99.90;;;;;;5068710;28;20511;-69
2022/06/13 09:04:31;;;;;;;1999.90;999.90;;;19.70;99.20;;;;;;5067894;28;21008;-69
2022/06/13 09:07:02;;;;;;;1999.90;999.90;;;20.00;98.40;;;;;;5067895;28;20527;-69
2022/06/13 09:09:35;;;;;;;1999.90;999.90;;;20.10;98.00;;;;;;5069465;28;20485;-68
2022/06/13 09:12:07;;;;;;;1999.90;999.90;;;20.70;96.90;;;;;;5065940;28;20449;-66
2022/06/13 09:14:36;;;;;;;1999.90;999.90;;;21.00;95.60;;;;;;5069269;28;20512;-68
2022/06/13 09:17:09;;;;;;;1999.90;999.90;;;21.40;94.00;;;;;;5068789;28;20461;-71
2022/06/13 09:19:44;;;;;;;1999.90;999.90;;;21.30;93.80;;;;;;5073451;28;20456;-69
2022/06/13 09:22:18;;;;;;;1999.90;999.90;;;21.30;93.40;;;;;;5072854;28;20881;-69
2022/06/13 09:24:52;;;;;;;1999.90;999.90;;;20.90;95.30;;;;;;5066270;28;20487;-68
2022/06/13 09:27:24;;;;;;;1999.90;999.90;;;20.40;95.80;;;;;;5074020;28;20445;-68
2022/06/13 09:29:59;;;;;;;1999.90;999.90;;;20.10;94.30;;;;;;5072633;28;20886;-70
2022/06/13 09:32:32;;;;;;;1999.90;999.90;;;20.50;94.10;;;;;;5067969;28;20964;-70
2022/06/13 09:35:05;;;;;;;1999.90;999.90;;;20.80;93.00;;;;;;5069855;28;20966;-71
2022/06/13 09:37:37;;;;;;;1999.90;999.90;;;21.10;91.00;;;;;;5069142;28;20613;-68
2022/06/13 09:40:04;;;;;;;1999.90;999.90;;;21.40;92.00;;;;;;5068358;28;20461;-70
2022/06/13 09:42:45;;;;;;;1999.90;999.90;;;21.60;91.80;;;;;;5068563;28;20534;-70
2022/06/13 09:45:40;;;;;;;1999.90;999.90;;;21.30;91.60;;;;;;5071823;28;20457;-68
2022/06/13 09:48:17;;;;;;;1999.90;999.90;;;20.80;91.30;;;;;;5073183;28;20821;-70
2022/06/13 09:50:52;;;;;;;1999.90;999.90;;;20.80;92.40;;;;;;5073566;28;20426;-69
2022/06/13 09:53:32;;;;;;;1999.90;999.90;;;20.70;93.00;;;;;;5072823;28;20518;-70
2022/06/13 09:56:04;;;;;;;1999.90;999.90;;;20.80;93.00;;;;;;5069574;28;20836;-69
2022/06/13 09:58:47;;;;;;;1999.90;999.90;;;20.80;92.00;;;;;;5065062;28;20449;-69
2022/06/13 10:01:19;;;;;;;1999.90;999.90;;;21.00;92.70;;;;;;5065561;28;20530;-70
2022/06/13 10:03:58;;;;;;;1999.90;999.90;;;21.10;91.80;;;;;;5068915;28;20536;-70
2022/06/13 10:06:33;;;;;;;1999.90;999.90;;;21.20;91.00;;;;;;5071128;28;20464;-69
2022/06/13 10:09:14;;;;;;;1999.90;999.90;;;21.40;91.60;;;;;;5066550;28;20463;-70
2022/06/13 10:11:48;;;;;;;1999.90;999.90;;;21.30;90.00;;;;;;5071668;28;20453;-70
2022/06/13 10:14:43;;;;;;;1999.90;999.90;;;21.40;91.20;;;;;;5069439;28;20485;-67
2022/06/13 10:17:23;;;;;;;1999.90;999.90;;;21.00;91.40;;;;;;5071019;28;20510;-70
2022/06/13 10:20:01;;;;;;;1999.90;999.90;;;21.20;91.60;;;;;;5067180;28;20457;-70
2022/06/13 10:22:37;;;;;;;1999.90;999.90;;;21.40;89.90;;;;;;5063873;28;20477;-70
2022/06/13 10:25:20;;;;;;;1999.90;999.90;;;21.80;90.70;;;;;;5070102;28;20495;-70
2022/06/13 10:27:59;;;;;;;1999.90;999.90;;;21.80;90.70;;;;;;5071270;28;20887;-68
2022/06/13 10:30:36;;;;;;;1999.90;999.90;;;21.80;89.00;;;;;;5065635;28;20469;-69
2022/06/13 10:33:18;;;;;;;1999.90;999.90;;;21.80;88.40;;;;;;5068251;28;20476;-70
2022/06/13 10:35:49;;;;;;;1999.90;999.90;;;22.10;88.90;;;;;;5065085;28;20442;-69
2022/06/13 10:38:30;;;;;;;1999.90;999.90;;;22.10;90.00;;;;;;5071304;28;20469;-68
2022/06/13 10:40:57;;;;;;;1999.90;999.90;;;21.10;90.70;;;;;;5072117;28;20506;-68
2022/06/13 10:43:24;;;;;;;1999.90;999.90;;;20.60;91.50;;;;;;5072208;28;20542;-68
2022/06/13 10:45:51;;;;;;;1999.90;999.90;;;20.50;92.00;;;;;;5072235;28;20866;-68
2022/06/13 10:48:21;;;;;;;1999.90;999.90;;;20.50;91.70;;;;;;5072249;28;20499;-69
2022/06/13 10:50:52;;;;;;;1999.90;999.90;;;20.60;91.90;;;;;;5072527;28;20426;-68
2022/06/13 10:53:24;;;;;;;1999.90;999.90;;;20.70;92.40;;;;;;5070750;28;20481;-69
2022/06/13 10:55:53;;;;;;;1999.90;999.90;;;21.00;92.20;;;;;;5072102;28;20437;-70
2022/06/13 10:58:25;;;;;;;1999.90;999.90;;;21.50;92.20;;;;;;5067284;28;20957;-68
2022/06/13 11:01:05;;;;;;;1999.90;999.90;;;21.70;90.80;;;;;;5068737;28;20457;-69
2022/06/13 11:03:32;;;;;;;1999.90;999.90;;;21.40;91.50;;;;;;5069561;28;20484;-70
2022/06/13 11:06:02;;;;;;;1999.90;999.90;;;21.20;91.00;;;;;;5066577;28;20465;-70
2022/06/13 11:08:31;;;;;;;1999.90;999.90;;;21.60;90.80;;;;;;5066802;28;20461;-69
2022/06/13 11:10:59;;;;;;;1999.90;999.90;;;21.80;90.30;;;;;;5068792;28;20502;-71
2022/06/13 11:13:29;;;;;;;1999.90;999.90;;;21.80;90.80;;;;;;5069778;28;20481;-70
2022/06/13 11:24:41;;;;;;;1999.90;999.90;;;22.90;86.80;;;;;;5020768;28;20478;-70
2022/06/13 11:30:35;;;;;;;1999.90;999.90;;;23.00;85.80;;;;;;5071769;28;20397;-70
2022/06/13 11:33:04;;;;;;;1999.90;999.90;;;22.60;86.10;;;;;;5060990;28;20482;-70
2022/06/13 11:35:36;;;;;;;1999.90;999.90;;;22.60;86.70;;;;;;5066408;28;21024;-70
2022/06/13 11:38:23;;;;;;;1999.90;999.90;;;22.70;88.10;;;;;;5068650;28;20460;-71
2022/06/13 11:41:07;;;;;;;1999.90;999.90;;;22.30;87.10;;;;;;5064685;28;20506;-69
2022/06/13 11:43:43;;;;;;;1999.90;999.90;;;21.30;91.00;;;;;;5073780;28;20468;-68
2022/06/13 11:46:15;;;;;;;1999.90;999.90;;;19.90;94.20;;;;;;5068525;28;20449;-70
2022/06/13 11:48:47;;;;;;;1999.90;999.90;;;18.90;99.90;;;;;;5071788;28;21084;-68
2022/06/13 11:51:20;;;;;;;1999.90;999.90;;;17.30;99.90;;;;;;5072832;28;20544;-68
2022/06/13 11:53:47;;;;;;;1999.90;999.90;;;16.00;99.90;;;;;;5071356;28;20493;-68
2022/06/13 11:56:24;;;;;;;1999.90;999.90;;;15.40;99.90;;;;;;5070423;28;20506;-68
2022/06/13 11:58:53;;;;;;;1999.90;999.90;;;14.90;99.90;;;;;;5071694;28;20547;-67
2022/06/13 12:01:24;;;;;;;1999.90;999.90;;;14.80;99.90;;;;;;5074675;28;20492;-69
2022/06/13 12:04:01;;;;;;;1999.90;999.90;;;14.70;99.90;;;;;;5069196;28;20552;-66
2022/06/13 12:06:32;;;;;;;1999.90;999.90;;;14.80;99.90;;;;;;5076245;28;20426;-67
2022/06/13 12:09:05;;;;;;;1999.90;999.90;;;15.10;99.90;;;;;;5075491;28;20437;-67
2022/06/13 12:11:43;;;;;;;1999.90;999.90;;;15.50;99.90;;;;;;5075846;28;20433;-68
2022/06/13 12:14:10;;;;;;;1999.90;999.90;;;15.70;99.90;;;;;;5075539;28;20511;-68
2022/06/13 12:16:41;;;;;;;1999.90;999.90;;;16.00;99.90;;;;;;5074630;28;20516;-68
2022/06/13 12:19:19;;;;;;;1999.90;999.90;;;16.40;99.90;;;;;;5075417;28;20494;-68
2022/06/13 12:21:50;;;;;;;1999.90;999.90;;;16.90;99.90;;;;;;5075300;28;20483;-69
2022/06/13 12:24:23;;;;;;;1999.90;999.90;;;17.40;99.90;;;;;;5074536;28;20595;-68
2022/06/13 12:26:59;;;;;;;1999.90;999.90;;;17.80;99.90;;;;;;5075222;28;20933;-69
2022/06/13 12:30:08;;;;;;;1999.90;999.90;;;18.20;99.90;;;;;;5075338;28;20502;-69
2022/06/13 12:32:38;;;;;;;1999.90;999.90;;;17.80;99.90;;;;;;5075031;28;20995;-69
2022/06/13 12:35:39;;;;;;;1999.90;999.90;;;17.20;99.90;;;;;;5075272;28;20933;-67
2022/06/13 12:38:18;;;;;;;1999.90;999.90;;;16.20;99.90;;;;;;5074998;28;20494;-68
2022/06/13 12:40:57;;;;;;;1999.90;999.90;;;15.80;99.90;;;;;;5070193;28;20829;-67
2022/06/13 12:43:49;;;;;;;1999.90;999.90;;;15.30;99.90;;;;;;5071958;28;21079;-67